Time;durP1;ratioP1;P1;durP2;ratioP2;P2;SDS_P1;SDS_P2;PMS_P1;PMS_P2;Temp;Humidity;BMP_temperature;BMP_pressure;BME280_temperature;BME280_humidity;BME280_pressure;Samples;Min_cycle;Max_cycle;Signal;HPM_P1;HPM_P2
2023/05/24 00:00:47;;;;;;;52.07;9.30;;;;;;;9.12;100.00;101205.47;5047250;28;20040;-74
2023/05/24 00:03:14;;;;;;;40.43;9.90;;;;;;;9.08;100.00;101206.72;5047903;28;20032;-73
2023/05/24 00:05:39;;;;;;;51.90;10.63;;;;;;;9.06;100.00;101212.19;5047338;28;20494;-73
2023/05/24 00:08:05;;;;;;;51.42;11.30;;;;;;;9.02;100.00;101205.47;5069432;28;20074;-73
2023/05/24 00:10:30;;;;;;;48.63;8.30;;;;;;;9.09;100.00;101205.75;5070181;28;20033;-73
2023/05/24 00:12:56;;;;;;;51.93;9.37;;;;;;;9.01;100.00;101182.50;5046215;28;20373;-75
2023/05/24 00:15:21;;;;;;;58.90;8.83;;;;;;;9.01;100.00;101197.59;5065748;28;20047;-74
2023/05/24 00:17:46;;;;;;;50.07;9.07;;;;;;;9.04;100.00;101208.84;5049537;28;20032;-73
2023/05/24 00:20:12;;;;;;;43.30;9.70;;;;;;;9.04;100.00;101208.00;5051887;28;20482;-74
2023/05/24 00:22:38;;;;;;;57.15;9.63;;;;;;;9.07;100.00;101197.88;5051924;28;20029;-74
2023/05/24 00:25:04;;;;;;;49.10;8.85;;;;;;;9.02;100.00;101188.66;5044825;28;20067;-74
2023/05/24 00:27:30;;;;;;;44.10;7.70;;;;;;;9.11;100.00;101209.13;5070186;28;20062;-74
2023/05/24 00:29:56;;;;;;;44.42;10.57;;;;;;;8.96;100.00;101191.88;5043625;28;20028;-73
2023/05/24 00:32:21;;;;;;;43.33;8.23;;;;;;;9.04;100.00;101197.34;5066945;28;20809;-74
2023/05/24 00:34:46;;;;;;;40.37;8.83;;;;;;;9.14;100.00;101205.31;5051874;28;20123;-74
2023/05/24 00:37:12;;;;;;;41.20;10.17;;;;;;;9.16;100.00;101208.69;5048246;28;20028;-73
2023/05/24 00:39:38;;;;;;;55.10;9.50;;;;;;;9.10;100.00;101202.09;5051812;28;20308;-74
2023/05/24 00:42:03;;;;;;;53.67;10.55;;;;;;;9.09;100.00;101200.44;5028234;28;20037;-73
2023/05/24 00:44:29;;;;;;;55.33;11.00;;;;;;;9.07;100.00;101208.53;5046361;28;20087;-74
2023/05/24 00:46:55;;;;;;;42.85;9.15;;;;;;;9.04;100.00;101213.31;5028300;28;20033;-73
2023/05/24 00:49:21;;;;;;;45.08;10.85;;;;;;;9.16;100.00;101240.66;5047127;28;20581;-73
2023/05/24 00:51:48;;;;;;;44.40;7.70;;;;;;;9.19;100.00;101233.22;5028855;28;20032;-73
2023/05/24 00:54:14;;;;;;;39.25;8.57;;;;;;;9.29;100.00;101238.53;5057485;28;20025;-74
2023/05/24 00:56:41;;;;;;;46.80;10.43;;;;;;;9.23;100.00;101215.97;5047468;28;20475;-74
2023/05/24 00:59:07;;;;;;;50.53;9.93;;;;;;;9.25;100.00;101232.66;5043477;28;20047;-74
2023/05/24 01:01:33;;;;;;;37.85;8.40;;;;;;;9.27;100.00;101241.34;5044555;28;20044;-73
2023/05/24 01:03:58;;;;;;;50.07;8.20;;;;;;;9.34;100.00;101238.09;5025414;28;20467;-73
2023/05/24 01:06:25;;;;;;;36.93;8.37;;;;;;;9.27;100.00;101244.03;5047853;28;20112;-73
2023/05/24 01:09:10;;;;;;;52.95;10.00;;;;;;;9.32;100.00;101240.94;5044851;28;20440;-74
2023/05/24 01:11:54;;;;;;;40.05;9.02;;;;;;;9.25;100.00;101221.16;5045807;28;20550;-74
2023/05/24 01:14:28;;;;;;;44.83;8.98;;;;;;;9.28;100.00;101236.84;5031829;28;20028;-74
2023/05/24 01:17:08;;;;;;;46.95;9.50;;;;;;;9.27;100.00;101246.69;5052486;28;20040;-73
2023/05/24 01:20:08;;;;;;;59.47;11.68;;;;;;;9.22;100.00;101248.06;5047970;28;20052;-74
2023/05/24 01:23:04;;;;;;;51.40;9.52;;;;;;;9.21;100.00;101252.56;5065047;28;20056;-74
2023/05/24 01:25:33;;;;;;;48.58;9.75;;;;;;;9.16;100.00;101260.16;5055586;28;20376;-73
2023/05/24 01:28:03;;;;;;;43.13;8.48;;;;;;;9.23;100.00;101276.41;5062866;28;20024;-74
2023/05/24 01:30:29;;;;;;;46.50;8.82;;;;;;;9.27;100.00;101272.47;5063838;28;20041;-74
2023/05/24 01:32:55;;;;;;;58.00;10.73;;;;;;;9.22;100.00;101275.53;5067720;28;20111;-73
2023/05/24 01:35:20;;;;;;;61.38;11.27;;;;;;;9.28;100.00;101290.97;5067858;28;20106;-74
2023/05/24 01:37:46;;;;;;;58.35;11.43;;;;;;;9.19;100.00;101272.34;5042370;28;20066;-73
2023/05/24 01:40:12;;;;;;;42.20;10.10;;;;;;;9.22;100.00;101278.22;5037811;28;20033;-75
2023/05/24 01:42:55;;;;;;;46.95;13.15;;;;;;;9.19;100.00;101275.00;5037464;28;20051;-74
2023/05/24 01:45:42;;;;;;;51.10;10.55;;;;;;;9.25;100.00;101280.63;5052040;28;20044;-73
2023/05/24 01:48:17;;;;;;;38.70;9.07;;;;;;;9.20;100.00;101282.00;5042443;28;20032;-73
2023/05/24 01:51:14;;;;;;;48.60;10.27;;;;;;;9.30;100.00;101299.69;5066141;28;20024;-74
2023/05/24 01:53:45;;;;;;;43.35;8.05;;;;;;;9.22;100.00;101294.19;5003711;28;20046;-74
2023/05/24 01:56:12;;;;;;;54.85;9.63;;;;;;;9.22;100.00;101293.34;4978624;28;20950;-74
2023/05/24 01:58:43;;;;;;;51.42;9.93;;;;;;;9.18;100.00;101281.31;4995794;28;20523;-74
2023/05/24 02:01:09;;;;;;;42.97;10.25;;;;;;;9.26;100.00;101286.78;4978641;28;20038;-73
2023/05/24 02:03:37;;;;;;;42.08;8.27;;;;;;;9.12;100.00;101289.88;4996274;28;20034;-73
2023/05/24 02:06:02;;;;;;;59.58;10.68;;;;;;;9.26;100.00;101308.94;4971542;28;20123;-73
2023/05/24 02:08:28;;;;;;;50.85;10.75;;;;;;;9.28;100.00;101306.97;4991303;28;20461;-74
2023/05/24 02:10:53;;;;;;;53.23;9.00;;;;;;;9.28;100.00;101301.63;4991720;28;20096;-74
2023/05/24 02:13:18;;;;;;;44.67;9.87;;;;;;;9.23;100.00;101298.56;4991912;28;20026;-73
2023/05/24 02:15:45;;;;;;;51.47;11.98;;;;;;;9.22;100.00;101307.53;4987099;28;20069;-73
2023/05/24 02:18:12;;;;;;;49.08;9.82;;;;;;;9.12;100.00;101314.69;5000713;28;20137;-74
2023/05/24 02:20:38;;;;;;;41.30;10.00;;;;;;;9.06;100.00;101320.53;4982095;28;20034;-73
2023/05/24 02:23:05;;;;;;;43.88;9.57;;;;;;;9.24;100.00;101336.69;4983599;28;20398;-74
2023/05/24 02:25:31;;;;;;;;;;;;;;;9.17;100.00;101331.06;4967841;28;20061;-73
2023/05/24 02:28:00;;;;;;;50.22;9.70;;;;;;;9.03;100.00;101303.03;4994579;28;19956;-74
2023/05/24 02:30:26;;;;;;;37.55;8.68;;;;;;;8.91;100.00;101304.13;5020554;28;20059;-73
2023/05/24 02:32:51;;;;;;;53.17;11.38;;;;;;;9.07;100.00;101322.25;5039345;28;20062;-74
2023/05/24 02:35:16;;;;;;;40.27;11.50;;;;;;;9.12;100.00;101320.00;5039793;28;20029;-73
2023/05/24 02:37:42;;;;;;;38.33;8.77;;;;;;;9.12;100.00;101327.16;5041948;28;20279;-73
2023/05/24 02:40:08;;;;;;;44.05;9.98;;;;;;;9.10;100.00;101324.63;5039499;28;20029;-73
2023/05/24 02:42:34;;;;;;;44.53;9.82;;;;;;;9.22;100.00;101333.31;5037671;28;20635;-73
2023/05/24 02:44:59;;;;;;;54.55;10.18;;;;;;;9.13;100.00;101310.19;5063065;28;20068;-73
2023/05/24 02:47:27;;;;;;;40.53;10.50;;;;;;;9.09;100.00;101317.63;5058178;28;20041;-73
2023/05/24 02:49:53;;;;;;;60.10;11.30;;;;;;;9.16;100.00;101329.41;5043867;28;20083;-73
2023/05/24 02:52:22;;;;;;;45.15;8.98;;;;;;;9.11;100.00;101331.66;5057486;28;20071;-73
2023/05/24 02:54:48;;;;;;;43.92;9.50;;;;;;;8.97;100.00;101326.72;5044089;28;20036;-73
2023/05/24 02:57:16;;;;;;;52.80;12.32;;;;;;;9.03;100.00;101352.78;5026046;28;20893;-73
2023/05/24 02:59:42;;;;;;;46.17;12.13;;;;;;;9.05;100.00;101353.50;5030875;28;20038;-73
2023/05/24 03:02:08;;;;;;;48.30;8.87;;;;;;;9.00;100.00;101355.75;5027649;28;20107;-74
2023/05/24 03:04:33;;;;;;;49.67;9.20;;;;;;;8.87;100.00;101348.00;5043326;28;20318;-73
2023/05/24 03:06:58;;;;;;;54.37;10.03;;;;;;;8.88;100.00;101357.69;5034836;28;20039;-74
2023/05/24 03:09:24;;;;;;;46.47;9.80;;;;;;;8.96;100.00;101378.28;5038988;28;20034;-73
2023/05/24 03:11:51;;;;;;;38.37;9.30;;;;;;;8.97;100.00;101366.69;5046934;28;20376;-73
2023/05/24 03:14:21;;;;;;;57.40;10.15;;;;;;;8.97;100.00;101361.34;5041664;28;20044;-74
2023/05/24 03:16:47;;;;;;;49.50;10.30;;;;;;;9.00;100.00;101364.56;5070361;28;20044;-72
2023/05/24 03:19:13;;;;;;;58.35;10.07;;;;;;;8.96;100.00;101352.50;5038939;28;20032;-72
2023/05/24 03:21:39;;;;;;;;;;;;;;;9.02;100.00;101365.28;5047116;28;20045;-73
2023/05/24 03:24:05;;;;;;;48.95;10.40;;;;;;;9.01;100.00;101362.75;5047171;28;20276;-73
2023/05/24 03:26:30;;;;;;;;;;;;;;;8.93;100.00;101359.94;5039097;28;20051;-73
2023/05/24 03:28:56;;;;;;;57.10;10.65;;;;;;;8.91;100.00;101362.72;5027000;28;19912;-73
2023/05/24 03:31:30;;;;;;;49.70;11.32;;;;;;;9.02;100.00;101372.44;5034066;28;20037;-73
2023/05/24 03:33:56;;;;;;;53.05;9.77;;;;;;;9.02;100.00;101372.44;5031085;28;20043;-73
2023/05/24 03:36:22;;;;;;;53.00;9.60;;;;;;;9.11;100.00;101378.72;5065586;28;20025;-73
2023/05/24 03:38:47;;;;;;;52.97;11.30;;;;;;;9.02;100.00;101364.44;5042739;28;20032;-73
2023/05/24 03:41:12;;;;;;;33.73;9.60;;;;;;;9.11;100.00;101362.75;5017652;28;20399;-73
2023/05/24 03:43:38;;;;;;;42.13;9.23;;;;;;;9.19;100.00;101361.09;5047529;28;20020;-73
2023/05/24 03:46:06;;;;;;;63.83;10.23;;;;;;;9.19;100.00;101358.44;5041443;28;20029;-73
2023/05/24 03:48:32;;;;;;;48.47;10.00;;;;;;;9.26;100.00;101351.56;5034822;28;20027;-73
2023/05/24 03:50:57;;;;;;;50.97;8.82;;;;;;;9.15;100.00;101356.19;5041888;28;20040;-73
2023/05/24 03:53:23;;;;;;;50.63;11.40;;;;;;;9.22;100.00;101355.47;5060211;28;20110;-73
2023/05/24 03:55:48;;;;;;;33.00;9.40;;;;;;;9.27;100.00;101355.94;5066184;28;20032;-73
2023/05/24 03:58:13;;;;;;;50.20;11.10;;;;;;;9.27;100.00;101358.59;5042812;28;20029;-74
2023/05/24 04:00:39;;;;;;;53.27;10.63;;;;;;;9.26;100.00;101350.72;5038445;28;20414;-73
2023/05/24 04:03:07;;;;;;;56.90;10.73;;;;;;;9.18;100.00;101354.09;5041695;28;20035;-73
2023/05/24 04:05:33;;;;;;;52.10;9.73;;;;;;;9.30;100.00;101363.63;5033994;28;20373;-72
2023/05/24 04:07:59;;;;;;;58.72;11.07;;;;;;;9.29;100.00;101355.75;5039897;28;20032;-73
2023/05/24 04:10:24;;;;;;;60.90;10.82;;;;;;;9.32;100.00;101349.31;5021074;28;20511;-73
2023/05/24 04:12:50;;;;;;;56.37;10.43;;;;;;;9.35;100.00;101343.72;5040780;28;20880;-73
2023/05/24 04:15:15;;;;;;;48.17;10.37;;;;;;;9.45;100.00;101342.72;5060327;28;20017;-73
2023/05/24 04:17:42;;;;;;;62.83;12.93;;;;;;;9.43;100.00;101335.84;5042529;28;20445;-73
2023/05/24 04:20:11;;;;;;;52.15;9.98;;;;;;;9.45;100.00;101331.22;5042153;28;20266;-74
2023/05/24 04:22:37;;;;;;;62.65;11.25;;;;;;;9.36;100.00;101318.75;5064333;28;20075;-73
2023/05/24 04:25:03;;;;;;;47.30;10.27;;;;;;;9.42;100.00;101334.19;5042634;28;20107;-73
2023/05/24 04:27:30;;;;;;;48.05;9.32;;;;;;;9.25;100.00;101328.56;5029768;28;20560;-73
2023/05/24 04:29:55;;;;;;;35.60;9.30;;;;;;;9.30;100.00;101352.13;5028999;28;20059;-73
2023/05/24 04:32:22;;;;;;;47.97;10.52;;;;;;;9.30;100.00;101352.97;5042384;28;20048;-73
2023/05/24 04:34:47;;;;;;;;;;;;;;;9.33;100.00;101357.19;5041780;28;20024;-73
2023/05/24 04:37:16;;;;;;;;;;;;;;;9.34;100.00;101352.69;5053248;28;20576;-73
2023/05/24 04:39:43;;;;;;;44.72;9.65;;;;;;;9.22;100.00;101350.16;5044555;28;19916;-73
2023/05/24 04:42:09;;;;;;;;;;;;;;;9.19;100.00;101354.94;5042097;28;20517;-73
2023/05/24 04:44:35;;;;;;;58.25;12.70;;;;;;;9.30;100.00;101363.63;5069252;28;19962;-73
2023/05/24 04:47:02;;;;;;;57.33;11.05;;;;;;;9.42;100.00;101358.19;5032555;28;20125;-73
2023/05/24 04:49:28;;;;;;;59.97;10.45;;;;;;;9.45;100.00;101350.72;5053632;28;20066;-73
2023/05/24 04:51:55;;;;;;;54.63;10.38;;;;;;;9.49;100.00;101348.63;5039234;28;20041;-73
2023/05/24 04:54:20;;;;;;;66.57;12.77;;;;;;;9.61;100.00;101339.50;5062080;28;20087;-73
2023/05/24 04:56:46;;;;;;;45.40;11.65;;;;;;;9.66;100.00;101339.91;5023904;28;20121;-73
2023/05/24 04:59:11;;;;;;;61.37;11.63;;;;;;;9.73;100.00;101327.69;5061216;28;20630;-73
2023/05/24 05:01:38;;;;;;;68.53;11.73;;;;;;;9.76;100.00;101317.72;5039082;28;20029;-73
2023/05/24 05:04:03;;;;;;;;;;;;;;;9.70;100.00;101300.47;5039600;28;20052;-74
2023/05/24 05:06:28;;;;;;;;;;;;;;;9.81;100.00;101316.31;5025747;28;20371;-73
2023/05/24 05:08:54;;;;;;;59.20;12.53;;;;;;;9.67;100.00;101306.94;5031115;28;19933;-74
2023/05/24 05:11:19;;;;;;;60.23;12.83;;;;;;;9.79;100.00;101310.28;5062070;28;20033;-74
2023/05/24 05:13:44;;;;;;;57.50;11.00;;;;;;;9.77;100.00;101306.94;5060148;28;20031;-73
2023/05/24 05:16:10;;;;;;;50.20;11.93;;;;;;;9.84;100.00;101307.19;5038683;28;20029;-74
2023/05/24 05:18:36;;;;;;;50.60;12.32;;;;;;;9.79;100.00;101309.47;5053035;28;20029;-72
2023/05/24 05:21:02;;;;;;;63.50;13.27;;;;;;;9.77;100.00;101316.75;5051560;28;20050;-73
2023/05/24 05:23:28;;;;;;;59.65;11.80;;;;;;;9.92;100.00;101320.63;5062986;28;20024;-74
2023/05/24 05:25:54;;;;;;;64.85;12.00;;;;;;;9.83;100.00;101313.50;5042344;28;20037;-73
2023/05/24 05:28:19;;;;;;;55.83;14.27;;;;;;;10.09;100.00;101335.91;5054063;28;20490;-73
2023/05/24 05:30:45;;;;;;;61.80;12.43;;;;;;;10.01;100.00;101318.94;5057602;28;20044;-74
2023/05/24 05:33:10;;;;;;;64.07;12.53;;;;;;;10.08;100.00;101326.22;5026301;28;20020;-73
2023/05/24 05:35:36;;;;;;;61.83;11.90;;;;;;;10.04;100.00;101324.81;5048068;28;20032;-73
2023/05/24 05:38:01;;;;;;;53.00;13.53;;;;;;;10.03;100.00;101323.13;5045454;28;20036;-73
2023/05/24 05:40:26;;;;;;;64.63;11.70;;;;;;;10.12;100.00;101324.94;5043143;28;21293;-73
2023/05/24 05:42:54;;;;;;;62.13;12.87;;;;;;;10.20;100.00;101326.03;5023782;28;20120;-72
2023/05/24 05:45:20;;;;;;;71.78;13.25;;;;;;;10.15;100.00;101316.63;5044203;28;20391;-74
2023/05/24 05:47:45;;;;;;;43.83;9.55;;;;;;;10.17;100.00;101318.34;5060268;28;20011;-73
2023/05/24 05:50:10;;;;;;;47.00;10.77;;;;;;;10.25;100.00;101313.09;5058264;28;20112;-73
2023/05/24 05:52:36;;;;;;;47.27;10.73;;;;;;;10.23;100.00;101309.72;5066601;28;20368;-72
2023/05/24 05:55:01;;;;;;;57.60;10.90;;;;;;;10.29;100.00;101309.19;5049879;28;20103;-73
2023/05/24 05:57:26;;;;;;;57.70;12.17;;;;;;;10.25;100.00;101284.56;5062367;28;20025;-74
2023/05/24 05:59:52;;;;;;;48.73;9.77;;;;;;;10.30;100.00;101293.03;5033555;28;20337;-73
2023/05/24 06:02:17;;;;;;;46.20;10.13;;;;;;;10.37;100.00;101319.94;5063032;28;20052;-73
2023/05/24 06:04:44;;;;;;;61.28;11.70;;;;;;;10.31;100.00;101301.88;5049658;28;20055;-73
2023/05/24 06:07:09;;;;;;;59.38;11.65;;;;;;;10.30;100.00;101286.81;5049190;28;20027;-73
2023/05/24 06:09:35;;;;;;;59.10;11.80;;;;;;;10.27;100.00;101292.44;5062928;28;20041;-74
2023/05/24 06:12:00;;;;;;;41.00;11.20;;;;;;;10.18;100.00;101320.84;5060145;28;20036;-73
2023/05/24 06:14:25;;;;;;;59.60;10.80;;;;;;;10.23;100.00;101363.09;5025066;28;20348;-72
2023/05/24 06:16:53;;;;;;;51.90;11.87;;;;;;;10.22;100.00;101372.94;5062450;28;20568;-72
2023/05/24 06:19:19;;;;;;;39.67;9.60;;;;;;;10.35;100.00;101370.00;5063304;28;20037;-73
2023/05/24 06:21:46;;;;;;;;;;;;;;;10.35;100.00;101396.69;5050333;28;20028;-73
2023/05/24 06:24:13;;;;;;;57.05;10.57;;;;;;;10.47;100.00;101422.22;5042579;28;19920;-74
2023/05/24 06:26:39;;;;;;;41.55;9.63;;;;;;;10.55;100.00;101413.47;5051013;28;20033;-73
2023/05/24 06:29:05;;;;;;;55.92;9.85;;;;;;;10.92;100.00;101432.16;5042863;28;20036;-73
2023/05/24 06:31:31;;;;;;;47.58;8.82;;;;;;;10.98;100.00;101402.19;5043716;28;20036;-72
2023/05/24 06:33:57;;;;;;;47.05;10.10;;;;;;;10.93;100.00;101351.03;5042427;28;20395;-73
2023/05/24 06:36:22;;;;;;;46.70;10.37;;;;;;;11.04;100.00;101365.16;5042818;28;20024;-73
2023/05/24 06:38:47;;;;;;;55.03;10.27;;;;;;;11.18;100.00;101337.91;5050324;28;20032;-73
2023/05/24 06:41:13;;;;;;;43.53;7.67;;;;;;;11.36;100.00;101279.94;5034875;28;20080;-73
2023/05/24 06:43:39;;;;;;;35.40;8.37;;;;;;;11.31;100.00;101231.44;5061938;28;20075;-73
2023/05/24 06:46:05;;;;;;;45.90;10.45;;;;;;;11.14;100.00;101192.22;5056381;28;20025;-73
2023/05/24 06:48:31;;;;;;;35.63;8.55;;;;;;;11.67;100.00;101244.72;5039937;28;20102;-73
2023/05/24 06:50:56;;;;;;;41.22;9.25;;;;;;;11.41;100.00;101202.78;5048243;28;20507;-73
2023/05/24 06:53:21;;;;;;;54.17;8.23;;;;;;;11.89;100.00;101210.44;5034635;28;20369;-73
2023/05/24 06:55:47;;;;;;;48.87;10.90;;;;;;;12.15;100.00;101194.31;5063150;28;20033;-73
2023/05/24 06:58:13;;;;;;;34.30;7.90;;;;;;;12.08;100.00;101154.00;5062405;28;20036;-74
2023/05/24 07:00:41;;;;;;;53.85;7.78;;;;;;;12.22;100.00;101153.38;5043275;28;20016;-73
2023/05/24 07:03:08;;;;;;;34.25;7.10;;;;;;;12.03;100.00;101051.94;5060558;28;20078;-73
2023/05/24 07:05:33;;;;;;;30.85;7.15;;;;;;;11.66;100.00;100999.69;5056895;28;20029;-73
2023/05/24 07:07:59;;;;;;;31.13;6.90;;;;;;;11.46;100.00;101041.06;5035004;28;20442;-74
2023/05/24 07:10:24;;;;;;;34.27;7.17;;;;;;;11.61;100.00;101116.97;5058228;28;20032;-73
2023/05/24 07:12:50;;;;;;;33.70;7.15;;;;;;;11.89;100.00;101130.16;5047167;28;20296;-73
2023/05/24 07:15:15;;;;;;;29.13;7.83;;;;;;;11.78;100.00;101081.28;5044186;28;20206;-74
2023/05/24 07:17:40;;;;;;;28.83;8.00;;;;;;;11.80;100.00;101100.69;5043579;28;20534;-73
2023/05/24 07:20:09;;;;;;;31.90;7.50;;;;;;;11.92;100.00;101121.84;5040157;28;20029;-73
2023/05/24 07:22:35;;;;;;;30.63;7.53;;;;;;;11.92;100.00;101089.72;5023323;28;20037;-73
2023/05/24 07:25:00;;;;;;;27.30;6.38;;;;;;;12.15;100.00;101130.06;5046196;28;20571;-74
2023/05/24 07:27:25;;;;;;;38.13;7.67;;;;;;;12.24;100.00;101046.97;5057842;28;20123;-73
2023/05/24 07:29:51;;;;;;;30.77;6.50;;;;;;;12.36;100.00;101019.84;5070905;28;20037;-72
2023/05/24 07:32:16;;;;;;;27.97;6.93;;;;;;;12.45;100.00;101037.59;5040868;28;20036;-73
2023/05/24 07:34:42;;;;;;;31.27;7.30;;;;;;;12.39;100.00;100998.13;5043632;28;20035;-74
2023/05/24 07:37:08;;;;;;;23.58;5.93;;;;;;;12.71;100.00;101049.97;5039575;28;20029;-74
2023/05/24 07:39:33;;;;;;;24.15;6.20;;;;;;;12.65;100.00;100982.69;5048790;28;20479;-74
2023/05/24 07:41:59;;;;;;;20.83;5.40;;;;;;;13.27;100.00;101061.56;5041624;28;20036;-73
2023/05/24 07:44:24;;;;;;;33.07;6.33;;;;;;;13.46;100.00;100894.94;5047136;28;20146;-74
2023/05/24 07:46:50;;;;;;;23.60;6.10;;;;;;;13.76;100.00;100776.97;5040655;28;20044;-73
2023/05/24 07:49:15;;;;;;;20.53;6.77;;;;;;;13.55;100.00;100807.19;5058158;28;20107;-73
2023/05/24 07:51:41;;;;;;;28.73;6.68;;;;;;;13.91;100.00;100887.88;5032771;28;20061;-73
2023/05/24 07:54:06;;;;;;;18.60;5.40;;;;;;;13.89;100.00;100771.81;5035579;28;20102;-73
2023/05/24 07:56:32;;;;;;;26.70;5.80;;;;;;;13.64;100.00;100735.53;5060958;28;20032;-73
2023/05/24 07:59:03;;;;;;;29.35;7.45;;;;;;;13.25;100.00;100740.03;5040851;28;20523;-74
2023/05/24 08:01:33;;;;;;;26.33;6.90;;;;;;;13.17;100.00;100790.19;5066032;28;20058;-74
2023/05/24 08:04:01;;;;;;;26.70;6.90;;;;;;;13.16;100.00;100813.50;5039046;28;20033;-73
2023/05/24 08:06:28;;;;;;;36.30;6.68;;;;;;;12.99;100.00;100862.81;5027209;28;20476;-74
2023/05/24 08:08:53;;;;;;;28.10;7.03;;;;;;;12.93;100.00;100867.06;5062015;28;20071;-74
2023/05/24 08:11:19;;;;;;;26.07;6.43;;;;;;;12.53;100.00;100935.00;5057529;28;20024;-74
2023/05/24 08:13:45;;;;;;;26.20;5.73;;;;;;;12.94;100.00;101071.53;5062007;28;20129;-74
2023/05/24 08:16:11;;;;;;;29.23;6.88;;;;;;;12.96;100.00;101083.75;5047797;28;20320;-73
2023/05/24 08:18:36;;;;;;;29.20;6.47;;;;;;;13.14;100.00;101048.72;5048674;28;20036;-73
2023/05/24 08:21:02;;;;;;;29.67;6.57;;;;;;;13.26;100.00;101076.00;5045325;28;20033;-74
2023/05/24 08:23:28;;;;;;;35.63;5.97;;;;;;;13.33;100.00;101050.19;5051380;28;20504;-74
2023/05/24 08:25:55;;;;;;;21.70;6.85;;;;;;;13.28;100.00;100962.22;5067566;28;20074;-75
2023/05/24 08:28:20;;;;;;;21.65;6.25;;;;;;;13.00;100.00;100888.63;5045621;28;20028;-72
2023/05/24 08:30:46;;;;;;;29.45;6.82;;;;;;;12.81;100.00;100956.88;5069847;28;20478;-74
2023/05/24 08:33:12;;;;;;;31.00;7.87;;;;;;;12.87;100.00;101040.06;5034777;28;20319;-74
2023/05/24 08:35:37;;;;;;;35.43;7.37;;;;;;;12.95;100.00;101106.22;5065807;28;20274;-74
2023/05/24 08:38:03;;;;;;;28.38;6.57;;;;;;;13.18;100.00;101169.84;5068769;28;20105;-74
2023/05/24 08:40:28;;;;;;;29.90;7.20;;;;;;;13.32;100.00;101096.78;5052179;28;20031;-74
2023/05/24 08:42:58;;;;;;;29.27;6.63;;;;;;;13.42;100.00;101035.75;5050477;28;20441;-74
2023/05/24 08:45:25;;;;;;;28.40;7.00;;;;;;;13.35;100.00;101016.00;5060280;28;20120;-74
2023/05/24 08:47:51;;;;;;;30.67;7.25;;;;;;;13.43;100.00;101012.44;5045680;28;20031;-74
2023/05/24 08:50:17;;;;;;;23.90;8.02;;;;;;;13.73;100.00;100955.25;5062433;28;20123;-74
2023/05/24 08:52:44;;;;;;;26.35;6.82;;;;;;;13.76;100.00;100894.22;5060011;28;20085;-75
2023/05/24 08:55:10;;;;;;;34.03;7.70;;;;;;;13.87;100.00;100971.63;5059385;28;20025;-74
2023/05/24 08:57:40;;;;;;;25.77;6.75;;;;;;;14.03;100.00;100919.66;5058977;28;20869;-73
2023/05/24 09:00:12;;;;;;;30.23;7.07;;;;;;;13.99;100.00;100910.28;5044723;28;20043;-75
2023/05/24 09:02:40;;;;;;;26.08;6.43;;;;;;;14.21;100.00;100979.25;5040003;28;20044;-73
2023/05/24 09:05:09;;;;;;;27.38;7.22;;;;;;;14.29;100.00;100933.50;5024889;28;20688;-73
2023/05/24 09:07:36;;;;;;;32.28;7.50;;;;;;;14.49;100.00;100836.28;5030240;28;20052;-74
2023/05/24 09:10:05;;;;;;;;;;;;;;;14.59;100.00;100694.47;5040956;28;20020;-74
2023/05/24 09:12:32;;;;;;;32.25;8.77;;;;;;;15.24;100.00;100810.97;5066707;28;19916;-72
2023/05/24 09:14:57;;;;;;;24.10;5.95;;;;;;;15.29;100.00;100804.97;5044283;28;20356;-75
2023/05/24 09:17:24;;;;;;;39.78;7.13;;;;;;;15.20;100.00;100710.16;5055118;28;20032;-75
2023/05/24 09:19:51;;;;;;;22.23;6.15;;;;;;;15.17;100.00;100738.28;5057468;28;20035;-74
2023/05/24 09:22:19;;;;;;;35.47;7.65;;;;;;;15.35;100.00;100756.63;5022653;28;20025;-74
2023/05/24 09:24:49;;;;;;;34.60;6.90;;;;;;;15.18;100.00;100655.72;5043538;28;20024;-74
2023/05/24 09:27:16;;;;;;;29.95;5.90;;;;;;;14.95;100.00;100589.56;5046831;28;20051;-74
2023/05/24 09:29:44;;;;;;;28.80;6.07;;;;;;;14.87;100.00;100631.91;5062339;28;20543;-75
2023/05/24 09:32:11;;;;;;;30.88;8.00;;;;;;;14.81;100.00;100742.88;5036490;28;20033;-74
2023/05/24 09:34:41;;;;;;;36.78;7.93;;;;;;;14.62;100.00;100717.44;5059620;28;20553;-73
2023/05/24 09:37:15;;;;;;;29.27;6.47;;;;;;;14.79;100.00;100708.09;5056843;28;20515;-73
2023/05/24 09:39:43;;;;;;;33.63;6.82;;;;;;;14.88;100.00;100534.09;5059787;28;20136;-72
2023/05/24 09:42:14;;;;;;;27.88;5.70;;;;;;;15.39;100.00;100792.88;5056901;28;20019;-75
2023/05/24 09:44:40;;;;;;;25.88;7.40;;;;;;;16.33;100.00;100608.53;5059565;28;20033;-75
2023/05/24 09:47:05;;;;;;;24.23;6.27;;;;;;;16.54;100.00;100490.81;5054591;28;20123;-73
2023/05/24 09:49:31;;;;;;;28.60;6.47;;;;;;;16.71;100.00;100562.13;5036408;28;20076;-72
2023/05/24 09:51:57;;;;;;;18.05;5.25;;;;;;;16.91;98.00;100279.06;5061116;28;20031;-74
2023/05/24 09:54:25;;;;;;;20.75;5.65;;;;;;;16.98;96.73;100281.72;5055356;28;20036;-75
2023/05/24 09:56:51;;;;;;;28.17;5.75;;;;;;;16.93;94.76;100206.03;5067116;28;20031;-73
2023/05/24 09:59:17;;;;;;;21.48;6.22;;;;;;;16.77;94.63;100200.09;5039624;28;20044;-75
2023/05/24 10:01:43;;;;;;;22.83;6.53;;;;;;;17.15;93.26;100231.59;5061330;28;20036;-73
2023/05/24 10:04:08;;;;;;;20.73;5.22;;;;;;;17.49;91.40;100189.00;5035053;28;20035;-75
2023/05/24 10:06:38;;;;;;;23.47;6.33;;;;;;;17.29;91.76;100183.78;5060982;28;20042;-75
2023/05/24 10:09:05;;;;;;;23.77;4.65;;;;;;;17.16;89.12;100027.44;5040486;28;20044;-74
2023/05/24 10:11:32;;;;;;;18.55;5.20;;;;;;;17.55;88.02;100099.03;5041489;28;20128;-74
2023/05/24 10:13:58;;;;;;;22.92;6.13;;;;;;;18.11;86.80;100114.19;5045726;28;20036;-75
2023/05/24 10:16:24;;;;;;;16.38;5.78;;;;;;;17.39;82.96;99663.38;5038494;28;20027;-74
2023/05/24 10:18:49;;;;;;;23.50;5.18;;;;;;;18.24;82.92;99980.00;5040732;28;20114;-74
2023/05/24 10:21:18;;;;;;;15.70;4.87;;;;;;;18.99;81.66;100055.13;5056145;28;20132;-75
2023/05/24 10:23:50;;;;;;;22.42;5.88;;;;;;;19.78;80.54;100158.47;5030205;28;20127;-75
2023/05/24 10:26:16;;;;;;;20.58;5.88;;;;;;;20.68;75.07;99882.28;5055251;28;20029;-74
2023/05/24 10:28:47;;;;;;;19.45;5.60;;;;;;;20.15;73.61;99654.09;5039656;28;20052;-74
2023/05/24 10:31:27;;;;;;;23.17;5.07;;;;;;;19.73;72.04;99494.88;5030535;28;20037;-74
2023/05/24 10:33:55;;;;;;;21.77;6.35;;;;;;;19.68;70.96;99483.16;5054362;28;20032;-75
2023/05/24 10:36:21;;;;;;;19.70;5.72;;;;;;;19.14;73.10;99690.22;5038063;28;20025;-74
2023/05/24 10:38:47;;;;;;;28.98;7.15;;;;;;;18.43;73.99;99662.69;5057126;28;20055;-74
2023/05/24 10:41:13;;;;;;;26.08;5.38;;;;;;;17.84;74.79;99664.69;5035052;28;20032;-76
2023/05/24 10:43:38;;;;;;;30.80;6.53;;;;;;;17.38;76.39;99795.81;5056662;28;20040;-75
2023/05/24 10:46:10;;;;;;;28.27;7.10;;;;;;;16.40;79.65;99962.78;5028308;28;20028;-74
2023/05/24 10:48:39;;;;;;;23.33;5.15;;;;;;;17.50;78.01;100137.50;5020182;28;20094;-74
2023/05/24 10:51:37;;;;;;;22.33;5.63;;;;;;;17.07;76.39;99840.84;5036814;28;20045;-75
2023/05/24 10:54:14;;;;;;;22.58;4.68;;;;;;;16.59;76.11;99733.81;5054743;28;20064;-74
2023/05/24 10:56:42;;;;;;;14.10;4.32;;;;;;;16.38;78.47;99962.19;5038863;28;20041;-74
2023/05/24 10:59:08;;;;;;;17.98;4.60;;;;;;;16.52;78.11;99954.00;5055225;28;20082;-74
2023/05/24 11:01:33;;;;;;;22.87;5.10;;;;;;;17.18;78.69;100223.06;5055479;28;20032;-73
2023/05/24 11:04:15;;;;;;;17.33;5.03;;;;;;;18.62;72.86;99967.97;5049526;28;20372;-75
2023/05/24 11:07:00;;;;;;;17.67;4.43;;;;;;;18.14;72.08;99797.72;5060459;28;20407;-74
2023/05/24 11:09:26;;;;;;;14.83;3.87;;;;;;;17.41;72.38;99660.44;5043239;28;20707;-74
2023/05/24 11:12:16;;;;;;;18.98;4.43;;;;;;;18.49;74.17;100174.41;5035643;28;20342;-74
2023/05/24 11:14:50;;;;;;;19.17;5.10;;;;;;;18.34;72.10;99815.44;5044120;28;20044;-74